Aviation Digital Data Service (ADDS)

Output produced by METARs form (2055 UTC 29 May 2017)
found at http://www.aviationweather.gov/adds/metars/
 
TAF KIAB 291800Z 2918/3024 33010G15KT 9999 FEW080 QNH3000INS 
     BECMG 2923/2924 36006KT 9999 BKN090 QNH3000INS 
     BECMG 3016/3017 16009KT 9999 OVC090 QNH2998INS TX30/2921Z TN15/3012Z
       
KIAD 292054Z 2921/3024 29009KT P6SM FEW045 SCT060 
     FM292300 VRB03KT P6SM SCT060 
     FM300600 10004KT 3SM BR BKN040 
     FM301000 11004KT 1 1/2SM BR OVC003 
     FM301500 17005KT P6SM BKN010 
     FM301800 17006KT P6SM BKN025 
     FM302100 17007KT P6SM BKN045
       
KIAG 291730Z 2918/3018 22015KT P6SM FEW016 OVC080 
     FM292000 23016KT P6SM SCT200 
     FM300200 19009KT P6SM BKN070 
     FM300600 21009KT P6SM VCSH OVC070 
     FM300900 21007KT P6SM BKN070 
     FM301400 21010G17KT P6SM SCT070
       
KIAH 292049Z 2921/3024 33008KT P6SM FEW025 OVC035 
     FM300300 09005KT P6SM SCT025 OVC250 
     FM301000 08007KT P6SM BKN020 
     FM301800 09010KT P6SM BKN035
       
KICT 291720Z 2918/3018 35009KT P6SM SKC 
     FM300000 02006KT P6SM SCT200 
     FM300600 VRB03KT P6SM SKC 
     FM301600 22006KT P6SM SCT140
       
KIDA 291720Z 2918/3018 VRB06KT P6SM FEW150
       
KIFP 291721Z 2918/3018 36012G20KT P6SM SKC 
     FM292000 21008KT P6SM SKC 
     FM300200 16007KT P6SM FEW250
       
KILG 291721Z 2918/3018 11005KT P6SM OVC010 
     FM291900 12006KT P6SM BKN015 
     FM300000 11007KT 6SM BR OVC008 
     FM300500 11004KT 4SM BR OVC004 
     TEMPO 3007/3011 2SM BR OVC002 
     FM301600 12008KT 4SM BR OVC008
       
KILM 291720Z 2918/3018 22005KT P6SM SKC 
     FM300400 22007KT P6SM BKN110 
     PROB30 3006/3012 4SM -TSRA OVC015CB 
     FM301700 26007KT P6SM BKN060 
     PROB30 3017/3018 4SM -TSRA OVC015CB
       
KILN 291738Z 2918/3018 23014G20KT P6SM BKN060 
     FM300000 24008KT P6SM SCT080 
     FM301600 26012KT P6SM FEW060
       
KIND 292026Z 2920/3024 25014G24KT P6SM SCT070 
     FM300000 25011KT P6SM VCTS SCT150CB 
     FM300200 25007KT P6SM SCT120 
     FM301800 26010G18KT P6SM FEW200
       
KINT 292029Z 2920/3018 29006KT P6SM SCT060 SCT100 BKN250 
     TEMPO 2922/3002 VRB15G25KT 3SM SHRA BKN040
       
KINW 291725Z 2918/3018 VRB05KT P6SM SCT120
       
KIPL 291720Z 2918/3018 VRB05KT P6SM BKN250 
     FM292000 14007KT P6SM BKN250 
     FM300300 26008KT P6SM BKN250 
     FM301400 VRB04KT P6SM SCT250
       
KIPT 292026Z 2920/3018 04005KT P6SM SCT025 
     FM292300 11005KT P6SM SCT030 
     FM300400 11006KT 5SM BR OVC009 
     FM301300 14007G15KT P6SM VCSH BKN023 BKN040
       
KISM 291727Z 2918/3018 24004KT P6SM SCT050 
     FM292300 12007KT P6SM SCT060 
     FM300200 22003KT P6SM FEW060 SCT250 
     FM301400 24004KT P6SM SCT025
       
KISN 291726Z 2918/3018 32018G27KT P6SM FEW050 SCT070 
     FM300200 34010KT P6SM FEW200 
     FM300400 34006KT P6SM SKC 
     FM301400 34010KT P6SM SKC
       
KISO 291727Z 2918/3018 28008KT P6SM SKC 
     FM300000 VRB03KT P6SM VCTS BKN060CB 
     FM300700 VRB03KT P6SM SCT025 BKN060 
     FM301200 26007KT P6SM BKN100 AMD LTD TO CLD VIS AND WIND
       
KISP 291934Z 2920/3018 07006KT P6SM BKN015 OVC020 
     TEMPO 2920/2924 SCT015 OVC025 
     FM300300 12004KT 3SM -DZ BR BKN008 OVC012 
     FM300600 12004KT 2SM -DZ BR OVC005 
     FM301300 13005KT 5SM BR BKN008 OVC012 
     FM301500 14008KT P6SM OVC015
       
KITH 291727Z 2918/3018 18010KT P6SM SCT022 BKN035 
     TEMPO 2918/2920 3SM SHRA BR OVC022 
     FM292100 21007KT P6SM SCT035 
     FM300000 15005KT P6SM SCT060 
     FM300600 15005KT P6SM OVC015 
     TEMPO 3009/3013 3SM BR OVC008 
     FM301500 18010KT 4SM SHRA BR OVC022
       
KIWA 291720Z 2918/3018 16005KT P6SM SCT250 
     FM292100 29006KT P6SM BKN250 
     FM300500 12008KT P6SM BKN250
       
KIXD 291726Z 2918/3018 32012KT P6SM SKC 
     FM300000 30007KT P6SM FEW250 
     FM300800 VRB03KT P6SM SCT120 
     FM301400 20007KT P6SM SCT080 BKN150